sensor_id;sensor_type;location;lat;lon;timestamp;P1;durP1;ratioP1;P2;durP2;ratioP2
70829;SDS011;58451;51.550;7.208;2023-10-09T00:00:55;25.10;;;8.50;;
70829;SDS011;58451;51.550;7.208;2023-10-09T00:02:37;23.70;;;8.50;;
70829;SDS011;58451;51.550;7.208;2023-10-09T00:04:12;24.10;;;9.50;;
70829;SDS011;58451;51.550;7.208;2023-10-09T00:05:49;28.70;;;10.60;;
70829;SDS011;58451;51.550;7.208;2023-10-09T00:07:25;26.70;;;9.40;;
70829;SDS011;58451;51.550;7.208;2023-10-09T00:08:57;25.30;;;9.60;;
70829;SDS011;58451;51.550;7.208;2023-10-09T00:10:30;29.20;;;10.30;;
70829;SDS011;58451;51.550;7.208;2023-10-09T00:12:20;25.30;;;9.10;;
70829;SDS011;58451;51.550;7.208;2023-10-09T00:13:57;30.50;;;10.40;;
70829;SDS011;58451;51.550;7.208;2023-10-09T00:15:32;28.20;;;9.90;;
70829;SDS011;58451;51.550;7.208;2023-10-09T00:17:05;27.80;;;10.50;;
70829;SDS011;58451;51.550;7.208;2023-10-09T00:18:43;29.40;;;11.20;;
70829;SDS011;58451;51.550;7.208;2023-10-09T00:20:19;29.50;;;10.60;;
70829;SDS011;58451;51.550;7.208;2023-10-09T00:21:53;30.00;;;11.50;;
70829;SDS011;58451;51.550;7.208;2023-10-09T00:23:27;31.50;;;11.00;;
70829;SDS011;58451;51.550;7.208;2023-10-09T00:24:59;28.80;;;10.10;;
70829;SDS011;58451;51.550;7.208;2023-10-09T00:26:43;34.00;;;10.90;;
70829;SDS011;58451;51.550;7.208;2023-10-09T00:28:17;26.10;;;10.40;;
70829;SDS011;58451;51.550;7.208;2023-10-09T00:29:53;29.90;;;10.80;;
70829;SDS011;58451;51.550;7.208;2023-10-09T00:31:27;26.70;;;9.30;;
70829;SDS011;58451;51.550;7.208;2023-10-09T00:33:05;26.80;;;10.60;;
70829;SDS011;58451;51.550;7.208;2023-10-09T00:34:39;30.50;;;11.30;;
70829;SDS011;58451;51.550;7.208;2023-10-09T00:36:11;33.40;;;12.10;;
70829;SDS011;58451;51.550;7.208;2023-10-09T00:37:49;28.10;;;10.80;;
70829;SDS011;58451;51.550;7.208;2023-10-09T00:39:24;27.70;;;11.10;;
70829;SDS011;58451;51.550;7.208;2023-10-09T00:41:22;30.10;;;10.70;;
70829;SDS011;58451;51.550;7.208;2023-10-09T00:42:59;36.60;;;12.20;;
70829;SDS011;58451;51.550;7.208;2023-10-09T00:44:37;30.40;;;11.80;;
70829;SDS011;58451;51.550;7.208;2023-10-09T00:46:11;39.50;;;13.20;;
70829;SDS011;58451;51.550;7.208;2023-10-09T00:47:52;40.80;;;14.00;;
70829;SDS011;58451;51.550;7.208;2023-10-09T00:49:28;35.70;;;12.80;;
70829;SDS011;58451;51.550;7.208;2023-10-09T00:51:03;36.80;;;12.30;;
70829;SDS011;58451;51.550;7.208;2023-10-09T00:52:51;32.60;;;12.50;;
70829;SDS011;58451;51.550;7.208;2023-10-09T00:54:32;35.30;;;12.00;;
70829;SDS011;58451;51.550;7.208;2023-10-09T00:56:12;33.90;;;11.30;;
70829;SDS011;58451;51.550;7.208;2023-10-09T00:57:51;33.70;;;11.50;;
70829;SDS011;58451;51.550;7.208;2023-10-09T00:59:37;30.90;;;10.30;;
70829;SDS011;58451;51.550;7.208;2023-10-09T01:01:10;32.40;;;11.40;;
70829;SDS011;58451;51.550;7.208;2023-10-09T01:02:47;31.30;;;11.10;;
70829;SDS011;58451;51.550;7.208;2023-10-09T01:04:39;26.10;;;10.80;;
70829;SDS011;58451;51.550;7.208;2023-10-09T01:06:15;28.80;;;11.10;;
70829;SDS011;58451;51.550;7.208;2023-10-09T01:07:49;31.20;;;11.50;;
70829;SDS011;58451;51.550;7.208;2023-10-09T01:09:29;27.50;;;11.20;;
70829;SDS011;58451;51.550;7.208;2023-10-09T01:11:11;31.40;;;10.50;;
70829;SDS011;58451;51.550;7.208;2023-10-09T01:13:02;29.50;;;12.10;;
70829;SDS011;58451;51.550;7.208;2023-10-09T01:14:34;35.50;;;13.80;;
70829;SDS011;58451;51.550;7.208;2023-10-09T01:16:13;32.60;;;12.20;;
70829;SDS011;58451;51.550;7.208;2023-10-09T01:17:49;37.40;;;13.40;;
70829;SDS011;58451;51.550;7.208;2023-10-09T01:19:21;37.40;;;12.10;;
70829;SDS011;58451;51.550;7.208;2023-10-09T01:20:56;31.60;;;12.00;;
70829;SDS011;58451;51.550;7.208;2023-10-09T01:22:28;30.90;;;11.80;;
70829;SDS011;58451;51.550;7.208;2023-10-09T01:23:59;36.10;;;13.70;;
70829;SDS011;58451;51.550;7.208;2023-10-09T01:25:41;36.20;;;13.30;;
70829;SDS011;58451;51.550;7.208;2023-10-09T01:27:17;33.40;;;13.10;;
70829;SDS011;58451;51.550;7.208;2023-10-09T01:28:49;31.70;;;12.30;;
70829;SDS011;58451;51.550;7.208;2023-10-09T01:30:21;34.00;;;11.80;;
70829;SDS011;58451;51.550;7.208;2023-10-09T01:31:55;32.50;;;12.30;;
70829;SDS011;58451;51.550;7.208;2023-10-09T01:33:28;32.60;;;12.00;;
70829;SDS011;58451;51.550;7.208;2023-10-09T01:35:00;31.50;;;11.70;;
70829;SDS011;58451;51.550;7.208;2023-10-09T01:36:32;29.60;;;10.70;;
70829;SDS011;58451;51.550;7.208;2023-10-09T01:38:04;33.50;;;11.60;;
70829;SDS011;58451;51.550;7.208;2023-10-09T01:39:42;31.90;;;11.70;;
70829;SDS011;58451;51.550;7.208;2023-10-09T01:41:14;31.40;;;12.60;;
70829;SDS011;58451;51.550;7.208;2023-10-09T01:42:51;34.10;;;11.90;;
70829;SDS011;58451;51.550;7.208;2023-10-09T01:44:27;30.20;;;12.00;;
70829;SDS011;58451;51.550;7.208;2023-10-09T01:46:06;30.00;;;11.40;;
70829;SDS011;58451;51.550;7.208;2023-10-09T01:47:42;31.20;;;12.30;;
70829;SDS011;58451;51.550;7.208;2023-10-09T01:49:25;30.50;;;12.40;;
70829;SDS011;58451;51.550;7.208;2023-10-09T01:51:03;31.20;;;12.60;;
70829;SDS011;58451;51.550;7.208;2023-10-09T01:52:37;30.00;;;12.20;;
70829;SDS011;58451;51.550;7.208;2023-10-09T01:54:10;31.40;;;12.70;;
70829;SDS011;58451;51.550;7.208;2023-10-09T01:56:11;28.90;;;11.20;;
70829;SDS011;58451;51.550;7.208;2023-10-09T01:57:46;32.90;;;13.10;;
70829;SDS011;58451;51.550;7.208;2023-10-09T01:59:19;30.10;;;11.90;;
70829;SDS011;58451;51.550;7.208;2023-10-09T02:00:51;29.10;;;12.40;;
70829;SDS011;58451;51.550;7.208;2023-10-09T02:02:28;28.50;;;11.80;;
70829;SDS011;58451;51.550;7.208;2023-10-09T02:04:06;29.10;;;12.00;;
70829;SDS011;58451;51.550;7.208;2023-10-09T02:05:45;29.50;;;12.00;;
70829;SDS011;58451;51.550;7.208;2023-10-09T02:07:17;28.90;;;11.90;;
70829;SDS011;58451;51.550;7.208;2023-10-09T02:08:55;32.20;;;12.30;;
70829;SDS011;58451;51.550;7.208;2023-10-09T02:10:27;30.40;;;12.10;;
70829;SDS011;58451;51.550;7.208;2023-10-09T02:11:59;30.90;;;12.20;;
70829;SDS011;58451;51.550;7.208;2023-10-09T02:13:32;25.70;;;11.80;;
70829;SDS011;58451;51.550;7.208;2023-10-09T02:15:08;29.20;;;12.00;;
70829;SDS011;58451;51.550;7.208;2023-10-09T02:16:47;30.00;;;12.10;;
70829;SDS011;58451;51.550;7.208;2023-10-09T02:18:40;28.50;;;11.80;;
70829;SDS011;58451;51.550;7.208;2023-10-09T02:20:28;30.30;;;12.30;;
70829;SDS011;58451;51.550;7.208;2023-10-09T02:22:02;32.20;;;13.30;;
70829;SDS011;58451;51.550;7.208;2023-10-09T02:23:44;29.50;;;12.30;;
70829;SDS011;58451;51.550;7.208;2023-10-09T02:25:15;31.90;;;13.10;;
70829;SDS011;58451;51.550;7.208;2023-10-09T02:26:52;30.30;;;12.80;;
70829;SDS011;58451;51.550;7.208;2023-10-09T02:28:24;30.40;;;12.60;;
70829;SDS011;58451;51.550;7.208;2023-10-09T02:29:56;33.80;;;12.70;;
70829;SDS011;58451;51.550;7.208;2023-10-09T02:31:30;31.20;;;12.60;;
70829;SDS011;58451;51.550;7.208;2023-10-09T02:33:16;31.80;;;12.80;;
70829;SDS011;58451;51.550;7.208;2023-10-09T02:35:01;28.30;;;12.20;;
70829;SDS011;58451;51.550;7.208;2023-10-09T02:36:42;26.80;;;11.60;;
70829;SDS011;58451;51.550;7.208;2023-10-09T02:38:14;26.40;;;11.50;;
70829;SDS011;58451;51.550;7.208;2023-10-09T02:39:46;27.90;;;11.70;;
70829;SDS011;58451;51.550;7.208;2023-10-09T02:41:24;29.00;;;12.00;;
70829;SDS011;58451;51.550;7.208;2023-10-09T02:43:00;26.00;;;11.50;;
70829;SDS011;58451;51.550;7.208;2023-10-09T02:44:32;26.80;;;11.80;;
70829;SDS011;58451;51.550;7.208;2023-10-09T02:46:11;28.20;;;11.10;;
70829;SDS011;58451;51.550;7.208;2023-10-09T02:47:50;26.60;;;11.10;;
70829;SDS011;58451;51.550;7.208;2023-10-09T02:49:24;24.80;;;11.60;;
70829;SDS011;58451;51.550;7.208;2023-10-09T02:50:57;29.00;;;11.60;;
70829;SDS011;58451;51.550;7.208;2023-10-09T02:52:29;25.80;;;11.50;;
70829;SDS011;58451;51.550;7.208;2023-10-09T02:54:12;23.70;;;11.00;;
70829;SDS011;58451;51.550;7.208;2023-10-09T02:56:11;22.20;;;10.50;;
70829;SDS011;58451;51.550;7.208;2023-10-09T02:57:49;29.40;;;11.40;;
70829;SDS011;58451;51.550;7.208;2023-10-09T02:59:24;27.50;;;11.20;;
70829;SDS011;58451;51.550;7.208;2023-10-09T03:00:56;24.70;;;10.10;;
70829;SDS011;58451;51.550;7.208;2023-10-09T03:02:27;23.40;;;9.50;;
70829;SDS011;58451;51.550;7.208;2023-10-09T03:04:04;22.90;;;10.30;;
70829;SDS011;58451;51.550;7.208;2023-10-09T03:05:37;20.20;;;9.20;;
70829;SDS011;58451;51.550;7.208;2023-10-09T03:07:14;25.10;;;10.30;;
70829;SDS011;58451;51.550;7.208;2023-10-09T03:08:46;20.00;;;9.40;;
70829;SDS011;58451;51.550;7.208;2023-10-09T03:10:19;20.30;;;9.40;;
70829;SDS011;58451;51.550;7.208;2023-10-09T03:11:55;18.80;;;9.10;;
70829;SDS011;58451;51.550;7.208;2023-10-09T03:13:35;20.90;;;9.20;;
70829;SDS011;58451;51.550;7.208;2023-10-09T03:15:07;21.80;;;9.60;;
70829;SDS011;58451;51.550;7.208;2023-10-09T03:16:41;22.00;;;9.20;;
70829;SDS011;58451;51.550;7.208;2023-10-09T03:18:14;20.00;;;8.80;;
70829;SDS011;58451;51.550;7.208;2023-10-09T03:19:47;20.20;;;8.80;;
70829;SDS011;58451;51.550;7.208;2023-10-09T03:21:22;19.90;;;8.80;;
70829;SDS011;58451;51.550;7.208;2023-10-09T03:22:54;18.00;;;8.30;;
70829;SDS011;58451;51.550;7.208;2023-10-09T03:24:26;21.60;;;8.90;;
70829;SDS011;58451;51.550;7.208;2023-10-09T03:25:59;19.10;;;8.80;;
70829;SDS011;58451;51.550;7.208;2023-10-09T03:27:51;18.20;;;8.50;;
70829;SDS011;58451;51.550;7.208;2023-10-09T03:29:24;20.00;;;8.00;;
70829;SDS011;58451;51.550;7.208;2023-10-09T03:30:57;22.40;;;8.60;;
70829;SDS011;58451;51.550;7.208;2023-10-09T03:32:34;18.00;;;8.20;;
70829;SDS011;58451;51.550;7.208;2023-10-09T03:34:05;20.30;;;8.50;;
70829;SDS011;58451;51.550;7.208;2023-10-09T03:35:40;18.90;;;8.10;;
70829;SDS011;58451;51.550;7.208;2023-10-09T03:37:12;18.00;;;8.00;;
70829;SDS011;58451;51.550;7.208;2023-10-09T03:38:54;21.50;;;8.30;;
70829;SDS011;58451;51.550;7.208;2023-10-09T03:40:27;15.50;;;7.50;;
70829;SDS011;58451;51.550;7.208;2023-10-09T03:41:59;17.40;;;8.10;;
70829;SDS011;58451;51.550;7.208;2023-10-09T03:43:36;18.50;;;8.30;;
70829;SDS011;58451;51.550;7.208;2023-10-09T03:45:12;19.70;;;8.40;;
70829;SDS011;58451;51.550;7.208;2023-10-09T03:46:50;17.90;;;7.00;;
70829;SDS011;58451;51.550;7.208;2023-10-09T03:48:23;15.90;;;7.50;;
70829;SDS011;58451;51.550;7.208;2023-10-09T03:50:03;18.30;;;7.70;;
70829;SDS011;58451;51.550;7.208;2023-10-09T03:51:52;17.50;;;7.80;;
70829;SDS011;58451;51.550;7.208;2023-10-09T03:53:24;17.70;;;7.70;;
70829;SDS011;58451;51.550;7.208;2023-10-09T03:54:57;17.90;;;8.30;;
70829;SDS011;58451;51.550;7.208;2023-10-09T03:56:29;16.70;;;7.50;;
70829;SDS011;58451;51.550;7.208;2023-10-09T03:58:02;17.10;;;7.50;;
70829;SDS011;58451;51.550;7.208;2023-10-09T03:59:34;18.60;;;8.10;;
70829;SDS011;58451;51.550;7.208;2023-10-09T04:01:09;24.30;;;7.90;;
70829;SDS011;58451;51.550;7.208;2023-10-09T04:02:48;17.70;;;7.50;;
70829;SDS011;58451;51.550;7.208;2023-10-09T04:04:22;15.80;;;7.10;;
70829;SDS011;58451;51.550;7.208;2023-10-09T04:05:55;17.60;;;7.50;;
70829;SDS011;58451;51.550;7.208;2023-10-09T04:07:27;16.90;;;7.60;;
70829;SDS011;58451;51.550;7.208;2023-10-09T04:09:03;18.50;;;8.00;;
70829;SDS011;58451;51.550;7.208;2023-10-09T04:10:49;17.90;;;7.90;;
70829;SDS011;58451;51.550;7.208;2023-10-09T04:12:29;15.90;;;7.50;;
70829;SDS011;58451;51.550;7.208;2023-10-09T04:14:02;19.40;;;8.00;;
70829;SDS011;58451;51.550;7.208;2023-10-09T04:15:41;18.50;;;7.90;;
70829;SDS011;58451;51.550;7.208;2023-10-09T04:17:14;19.40;;;8.20;;
70829;SDS011;58451;51.550;7.208;2023-10-09T04:19:05;17.80;;;7.40;;
70829;SDS011;58451;51.550;7.208;2023-10-09T04:20:43;19.10;;;7.10;;
70829;SDS011;58451;51.550;7.208;2023-10-09T04:22:33;19.80;;;7.90;;
70829;SDS011;58451;51.550;7.208;2023-10-09T04:24:10;17.30;;;6.90;;
70829;SDS011;58451;51.550;7.208;2023-10-09T04:25:45;18.20;;;7.70;;
70829;SDS011;58451;51.550;7.208;2023-10-09T04:27:22;14.50;;;6.50;;
70829;SDS011;58451;51.550;7.208;2023-10-09T04:28:58;17.80;;;7.30;;
70829;SDS011;58451;51.550;7.208;2023-10-09T04:30:30;14.50;;;7.20;;
70829;SDS011;58451;51.550;7.208;2023-10-09T04:32:12;16.40;;;7.00;;
70829;SDS011;58451;51.550;7.208;2023-10-09T04:33:49;16.60;;;7.40;;
70829;SDS011;58451;51.550;7.208;2023-10-09T04:35:47;19.20;;;7.10;;
70829;SDS011;58451;51.550;7.208;2023-10-09T04:37:39;15.80;;;6.80;;
70829;SDS011;58451;51.550;7.208;2023-10-09T04:39:11;15.70;;;6.90;;
70829;SDS011;58451;51.550;7.208;2023-10-09T04:40:43;18.20;;;7.30;;
70829;SDS011;58451;51.550;7.208;2023-10-09T04:42:18;15.90;;;6.60;;
70829;SDS011;58451;51.550;7.208;2023-10-09T04:43:56;16.20;;;6.70;;
70829;SDS011;58451;51.550;7.208;2023-10-09T04:45:52;16.40;;;6.30;;
70829;SDS011;58451;51.550;7.208;2023-10-09T04:47:44;14.50;;;5.80;;
70829;SDS011;58451;51.550;7.208;2023-10-09T04:49:30;14.70;;;6.30;;
70829;SDS011;58451;51.550;7.208;2023-10-09T04:51:06;17.40;;;6.90;;
70829;SDS011;58451;51.550;7.208;2023-10-09T04:53:05;15.80;;;6.80;;
70829;SDS011;58451;51.550;7.208;2023-10-09T04:54:46;16.00;;;6.50;;
70829;SDS011;58451;51.550;7.208;2023-10-09T04:56:36;17.00;;;6.80;;
70829;SDS011;58451;51.550;7.208;2023-10-09T04:58:25;16.00;;;6.40;;
70829;SDS011;58451;51.550;7.208;2023-10-09T04:59:57;15.50;;;6.60;;
70829;SDS011;58451;51.550;7.208;2023-10-09T05:01:30;16.30;;;6.70;;
70829;SDS011;58451;51.550;7.208;2023-10-09T05:03:15;15.60;;;6.30;;
70829;SDS011;58451;51.550;7.208;2023-10-09T05:04:59;14.30;;;6.50;;
70829;SDS011;58451;51.550;7.208;2023-10-09T05:07:09;18.80;;;7.30;;
70829;SDS011;58451;51.550;7.208;2023-10-09T05:09:17;14.80;;;6.10;;
70829;SDS011;58451;51.550;7.208;2023-10-09T05:10:56;15.10;;;6.40;;
70829;SDS011;58451;51.550;7.208;2023-10-09T05:12:31;15.40;;;6.90;;
70829;SDS011;58451;51.550;7.208;2023-10-09T05:14:03;17.80;;;7.10;;
70829;SDS011;58451;51.550;7.208;2023-10-09T05:15:44;14.10;;;6.30;;
70829;SDS011;58451;51.550;7.208;2023-10-09T05:17:17;16.60;;;6.30;;
70829;SDS011;58451;51.550;7.208;2023-10-09T05:18:49;15.30;;;6.40;;
70829;SDS011;58451;51.550;7.208;2023-10-09T05:20:59;16.60;;;6.60;;
70829;SDS011;58451;51.550;7.208;2023-10-09T05:22:51;15.30;;;6.60;;
70829;SDS011;58451;51.550;7.208;2023-10-09T05:24:29;14.70;;;6.00;;
70829;SDS011;58451;51.550;7.208;2023-10-09T05:26:17;16.20;;;6.40;;
70829;SDS011;58451;51.550;7.208;2023-10-09T05:28:19;17.50;;;6.90;;
70829;SDS011;58451;51.550;7.208;2023-10-09T05:30:04;16.80;;;6.50;;
70829;SDS011;58451;51.550;7.208;2023-10-09T05:31:55;18.30;;;6.90;;
70829;SDS011;58451;51.550;7.208;2023-10-09T05:33:29;17.80;;;7.20;;
70829;SDS011;58451;51.550;7.208;2023-10-09T05:35:05;14.80;;;6.40;;
70829;SDS011;58451;51.550;7.208;2023-10-09T05:36:47;17.40;;;6.40;;
70829;SDS011;58451;51.550;7.208;2023-10-09T05:38:19;15.90;;;6.10;;
70829;SDS011;58451;51.550;7.208;2023-10-09T05:39:57;19.10;;;7.30;;
70829;SDS011;58451;51.550;7.208;2023-10-09T05:41:33;16.70;;;6.40;;
70829;SDS011;58451;51.550;7.208;2023-10-09T05:43:23;17.60;;;6.70;;
70829;SDS011;58451;51.550;7.208;2023-10-09T05:45:16;22.10;;;6.80;;
70829;SDS011;58451;51.550;7.208;2023-10-09T05:46:50;18.40;;;6.50;;
70829;SDS011;58451;51.550;7.208;2023-10-09T05:48:41;15.40;;;6.40;;
70829;SDS011;58451;51.550;7.208;2023-10-09T05:50:13;19.60;;;7.10;;
70829;SDS011;58451;51.550;7.208;2023-10-09T05:51:45;18.70;;;6.80;;
70829;SDS011;58451;51.550;7.208;2023-10-09T05:53:25;14.70;;;6.60;;
70829;SDS011;58451;51.550;7.208;2023-10-09T05:55:15;15.80;;;6.30;;
70829;SDS011;58451;51.550;7.208;2023-10-09T05:56:47;18.90;;;6.80;;
70829;SDS011;58451;51.550;7.208;2023-10-09T05:58:37;15.80;;;6.80;;
70829;SDS011;58451;51.550;7.208;2023-10-09T06:00:28;18.30;;;6.90;;
70829;SDS011;58451;51.550;7.208;2023-10-09T06:02:18;15.90;;;6.60;;
70829;SDS011;58451;51.550;7.208;2023-10-09T06:04:22;16.30;;;6.40;;
70829;SDS011;58451;51.550;7.208;2023-10-09T06:06:14;15.60;;;6.40;;
70829;SDS011;58451;51.550;7.208;2023-10-09T06:08:04;20.10;;;7.20;;
70829;SDS011;58451;51.550;7.208;2023-10-09T06:09:38;17.80;;;6.90;;
70829;SDS011;58451;51.550;7.208;2023-10-09T06:11:28;15.40;;;5.90;;
70829;SDS011;58451;51.550;7.208;2023-10-09T06:13:07;15.10;;;6.40;;
70829;SDS011;58451;51.550;7.208;2023-10-09T06:14:51;18.00;;;6.90;;
70829;SDS011;58451;51.550;7.208;2023-10-09T06:16:36;16.70;;;6.60;;
70829;SDS011;58451;51.550;7.208;2023-10-09T06:18:27;14.40;;;6.10;;
70829;SDS011;58451;51.550;7.208;2023-10-09T06:20:05;15.40;;;6.70;;
70829;SDS011;58451;51.550;7.208;2023-10-09T06:22:00;16.40;;;6.70;;
70829;SDS011;58451;51.550;7.208;2023-10-09T06:23:35;15.80;;;6.70;;
70829;SDS011;58451;51.550;7.208;2023-10-09T06:25:25;18.30;;;7.30;;
70829;SDS011;58451;51.550;7.208;2023-10-09T06:27:04;17.30;;;6.50;;
70829;SDS011;58451;51.550;7.208;2023-10-09T06:28:36;17.80;;;7.40;;
70829;SDS011;58451;51.550;7.208;2023-10-09T06:30:09;14.80;;;6.50;;
70829;SDS011;58451;51.550;7.208;2023-10-09T06:31:44;16.80;;;7.10;;
70829;SDS011;58451;51.550;7.208;2023-10-09T06:33:51;15.70;;;7.20;;
70829;SDS011;58451;51.550;7.208;2023-10-09T06:35:47;17.30;;;6.80;;
70829;SDS011;58451;51.550;7.208;2023-10-09T06:37:25;17.00;;;7.10;;
70829;SDS011;58451;51.550;7.208;2023-10-09T06:38:57;14.40;;;6.90;;
70829;SDS011;58451;51.550;7.208;2023-10-09T06:40:50;15.30;;;7.00;;
70829;SDS011;58451;51.550;7.208;2023-10-09T06:42:48;16.80;;;7.60;;
70829;SDS011;58451;51.550;7.208;2023-10-09T06:44:26;15.90;;;7.40;;
70829;SDS011;58451;51.550;7.208;2023-10-09T06:46:17;14.40;;;6.10;;
70829;SDS011;58451;51.550;7.208;2023-10-09T06:48:11;13.10;;;6.20;;
70829;SDS011;58451;51.550;7.208;2023-10-09T06:50:04;15.40;;;6.10;;
70829;SDS011;58451;51.550;7.208;2023-10-09T06:51:56;12.60;;;5.70;;
70829;SDS011;58451;51.550;7.208;2023-10-09T06:53:49;14.20;;;6.70;;
70829;SDS011;58451;51.550;7.208;2023-10-09T06:55:28;15.20;;;6.50;;
70829;SDS011;58451;51.550;7.208;2023-10-09T06:57:08;13.80;;;6.30;;
70829;SDS011;58451;51.550;7.208;2023-10-09T06:58:50;14.30;;;6.10;;
70829;SDS011;58451;51.550;7.208;2023-10-09T07:00:28;15.70;;;6.40;;
70829;SDS011;58451;51.550;7.208;2023-10-09T07:02:20;14.50;;;6.90;;
70829;SDS011;58451;51.550;7.208;2023-10-09T07:03:59;15.20;;;6.80;;
70829;SDS011;58451;51.550;7.208;2023-10-09T07:06:09;13.30;;;6.00;;
70829;SDS011;58451;51.550;7.208;2023-10-09T07:07:57;13.40;;;5.50;;
70829;SDS011;58451;51.550;7.208;2023-10-09T07:09:48;13.90;;;6.40;;
70829;SDS011;58451;51.550;7.208;2023-10-09T07:11:53;16.60;;;7.50;;
70829;SDS011;58451;51.550;7.208;2023-10-09T07:13:36;15.50;;;6.20;;
70829;SDS011;58451;51.550;7.208;2023-10-09T07:15:09;13.50;;;6.30;;
70829;SDS011;58451;51.550;7.208;2023-10-09T07:16:41;16.20;;;6.80;;
70829;SDS011;58451;51.550;7.208;2023-10-09T07:18:34;16.60;;;6.60;;
70829;SDS011;58451;51.550;7.208;2023-10-09T07:20:22;14.40;;;6.50;;
70829;SDS011;58451;51.550;7.208;2023-10-09T07:22:23;14.40;;;6.40;;
70829;SDS011;58451;51.550;7.208;2023-10-09T07:23:55;15.00;;;6.10;;
70829;SDS011;58451;51.550;7.208;2023-10-09T07:25:29;14.40;;;6.60;;
70829;SDS011;58451;51.550;7.208;2023-10-09T07:27:27;17.20;;;7.40;;
70829;SDS011;58451;51.550;7.208;2023-10-09T07:29:33;15.20;;;6.80;;
70829;SDS011;58451;51.550;7.208;2023-10-09T07:31:20;14.40;;;6.80;;
70829;SDS011;58451;51.550;7.208;2023-10-09T07:33:19;15.10;;;6.30;;
70829;SDS011;58451;51.550;7.208;2023-10-09T07:35:06;14.90;;;6.50;;
70829;SDS011;58451;51.550;7.208;2023-10-09T07:36:41;16.80;;;7.00;;
70829;SDS011;58451;51.550;7.208;2023-10-09T07:38:23;16.70;;;7.10;;
70829;SDS011;58451;51.550;7.208;2023-10-09T07:40:04;15.70;;;7.10;;
70829;SDS011;58451;51.550;7.208;2023-10-09T07:41:45;15.30;;;7.00;;
70829;SDS011;58451;51.550;7.208;2023-10-09T07:43:37;16.30;;;6.50;;
70829;SDS011;58451;51.550;7.208;2023-10-09T07:45:11;14.60;;;6.60;;
70829;SDS011;58451;51.550;7.208;2023-10-09T07:46:52;13.90;;;6.40;;
70829;SDS011;58451;51.550;7.208;2023-10-09T07:48:27;14.40;;;6.40;;
70829;SDS011;58451;51.550;7.208;2023-10-09T07:50:11;16.50;;;6.80;;
70829;SDS011;58451;51.550;7.208;2023-10-09T07:51:43;16.00;;;6.70;;
70829;SDS011;58451;51.550;7.208;2023-10-09T07:53:16;16.90;;;7.30;;
70829;SDS011;58451;51.550;7.208;2023-10-09T07:55:01;15.70;;;7.20;;
70829;SDS011;58451;51.550;7.208;2023-10-09T07:56:40;16.60;;;6.90;;
70829;SDS011;58451;51.550;7.208;2023-10-09T07:58:18;16.00;;;7.40;;
70829;SDS011;58451;51.550;7.208;2023-10-09T07:59:56;13.40;;;6.40;;
70829;SDS011;58451;51.550;7.208;2023-10-09T08:02:05;16.60;;;6.90;;
70829;SDS011;58451;51.550;7.208;2023-10-09T08:03:40;15.90;;;6.90;;
70829;SDS011;58451;51.550;7.208;2023-10-09T08:05:21;13.60;;;6.50;;
70829;SDS011;58451;51.550;7.208;2023-10-09T08:06:56;16.40;;;6.50;;
70829;SDS011;58451;51.550;7.208;2023-10-09T08:08:49;15.40;;;7.10;;
70829;SDS011;58451;51.550;7.208;2023-10-09T08:10:54;13.80;;;6.50;;
70829;SDS011;58451;51.550;7.208;2023-10-09T08:12:47;15.80;;;6.60;;
70829;SDS011;58451;51.550;7.208;2023-10-09T08:14:22;16.60;;;6.50;;
70829;SDS011;58451;51.550;7.208;2023-10-09T08:15:57;15.70;;;7.10;;
70829;SDS011;58451;51.550;7.208;2023-10-09T08:17:42;17.90;;;7.60;;
70829;SDS011;58451;51.550;7.208;2023-10-09T08:19:22;16.00;;;7.20;;
70829;SDS011;58451;51.550;7.208;2023-10-09T08:21:15;14.90;;;7.40;;
70829;SDS011;58451;51.550;7.208;2023-10-09T08:22:51;16.00;;;7.40;;
70829;SDS011;58451;51.550;7.208;2023-10-09T08:24:30;16.20;;;7.40;;
70829;SDS011;58451;51.550;7.208;2023-10-09T08:26:29;15.40;;;6.80;;
70829;SDS011;58451;51.550;7.208;2023-10-09T08:28:03;14.30;;;6.90;;
70829;SDS011;58451;51.550;7.208;2023-10-09T08:30:00;14.80;;;6.80;;
70829;SDS011;58451;51.550;7.208;2023-10-09T08:31:48;15.80;;;7.20;;
70829;SDS011;58451;51.550;7.208;2023-10-09T08:33:31;17.30;;;7.60;;
70829;SDS011;58451;51.550;7.208;2023-10-09T08:35:18;14.30;;;7.10;;
70829;SDS011;58451;51.550;7.208;2023-10-09T08:37:07;16.60;;;7.80;;
70829;SDS011;58451;51.550;7.208;2023-10-09T08:38:50;16.00;;;7.50;;
70829;SDS011;58451;51.550;7.208;2023-10-09T08:40:32;15.30;;;7.40;;
70829;SDS011;58451;51.550;7.208;2023-10-09T08:42:27;16.70;;;7.30;;
70829;SDS011;58451;51.550;7.208;2023-10-09T08:44:06;18.30;;;7.80;;
70829;SDS011;58451;51.550;7.208;2023-10-09T08:45:49;14.40;;;7.60;;
70829;SDS011;58451;51.550;7.208;2023-10-09T08:47:25;17.90;;;7.70;;
70829;SDS011;58451;51.550;7.208;2023-10-09T08:49:01;16.10;;;7.60;;
70829;SDS011;58451;51.550;7.208;2023-10-09T08:50:37;16.80;;;7.60;;
70829;SDS011;58451;51.550;7.208;2023-10-09T08:52:20;17.30;;;7.90;;
70829;SDS011;58451;51.550;7.208;2023-10-09T08:53:59;19.00;;;8.00;;
70829;SDS011;58451;51.550;7.208;2023-10-09T08:55:32;16.70;;;7.60;;
70829;SDS011;58451;51.550;7.208;2023-10-09T08:57:04;16.30;;;7.60;;
70829;SDS011;58451;51.550;7.208;2023-10-09T08:58:47;19.20;;;8.60;;
70829;SDS011;58451;51.550;7.208;2023-10-09T09:00:29;14.80;;;6.70;;
70829;SDS011;58451;51.550;7.208;2023-10-09T09:02:05;15.50;;;7.40;;
70829;SDS011;58451;51.550;7.208;2023-10-09T09:03:44;19.30;;;8.60;;
70829;SDS011;58451;51.550;7.208;2023-10-09T09:05:17;16.90;;;8.00;;
70829;SDS011;58451;51.550;7.208;2023-10-09T09:06:53;15.80;;;7.70;;
70829;SDS011;58451;51.550;7.208;2023-10-09T09:08:46;17.90;;;7.80;;
70829;SDS011;58451;51.550;7.208;2023-10-09T09:10:27;15.40;;;7.60;;
70829;SDS011;58451;51.550;7.208;2023-10-09T09:12:21;15.60;;;7.40;;
70829;SDS011;58451;51.550;7.208;2023-10-09T09:14:12;15.00;;;7.90;;
70829;SDS011;58451;51.550;7.208;2023-10-09T09:15:53;18.20;;;8.20;;
70829;SDS011;58451;51.550;7.208;2023-10-09T09:18:11;14.90;;;7.20;;
70829;SDS011;58451;51.550;7.208;2023-10-09T09:19:52;17.20;;;8.10;;
70829;SDS011;58451;51.550;7.208;2023-10-09T09:21:31;17.70;;;7.40;;
70829;SDS011;58451;51.550;7.208;2023-10-09T09:23:13;13.60;;;6.10;;
70829;SDS011;58451;51.550;7.208;2023-10-09T09:24:57;15.10;;;7.70;;
70829;SDS011;58451;51.550;7.208;2023-10-09T09:26:41;16.90;;;7.40;;
70829;SDS011;58451;51.550;7.208;2023-10-09T09:28:17;14.60;;;7.00;;
70829;SDS011;58451;51.550;7.208;2023-10-09T09:30:43;14.30;;;6.10;;
70829;SDS011;58451;51.550;7.208;2023-10-09T09:32:33;17.10;;;7.60;;
70829;SDS011;58451;51.550;7.208;2023-10-09T09:34:27;15.50;;;6.80;;
70829;SDS011;58451;51.550;7.208;2023-10-09T09:36:03;15.40;;;7.20;;
70829;SDS011;58451;51.550;7.208;2023-10-09T09:37:37;15.70;;;7.30;;
70829;SDS011;58451;51.550;7.208;2023-10-09T09:39:12;17.20;;;7.30;;
70829;SDS011;58451;51.550;7.208;2023-10-09T09:40:56;14.40;;;7.00;;
70829;SDS011;58451;51.550;7.208;2023-10-09T09:42:28;12.30;;;5.90;;
70829;SDS011;58451;51.550;7.208;2023-10-09T09:44:19;15.30;;;7.70;;
70829;SDS011;58451;51.550;7.208;2023-10-09T09:46:00;14.60;;;7.10;;
70829;SDS011;58451;51.550;7.208;2023-10-09T09:47:37;17.70;;;7.50;;
70829;SDS011;58451;51.550;7.208;2023-10-09T09:49:10;14.70;;;7.20;;
70829;SDS011;58451;51.550;7.208;2023-10-09T09:51:00;15.00;;;7.10;;
70829;SDS011;58451;51.550;7.208;2023-10-09T09:52:37;16.70;;;7.50;;
70829;SDS011;58451;51.550;7.208;2023-10-09T09:54:11;15.80;;;7.30;;
70829;SDS011;58451;51.550;7.208;2023-10-09T09:55:54;14.30;;;6.90;;